createdAt,value
2022-09-04T00:02:21.825Z,14.27
2022-09-04T00:05:03.481Z,13.93
2022-09-04T00:07:56.568Z,12.00
2022-09-04T00:10:40.480Z,12.98
2022-09-04T00:13:22.320Z,12.80
2022-09-04T00:16:12.299Z,15.10
2022-09-04T00:18:57.148Z,12.43
2022-09-04T00:21:46.443Z,12.55
2022-09-04T00:24:18.629Z,11.82
2022-09-04T00:27:00.770Z,12.55
2022-09-04T00:29:45.163Z,14.68
2022-09-04T00:32:50.386Z,17.27
2022-09-04T00:35:33.727Z,12.32
2022-09-04T00:38:34.821Z,11.25
2022-09-04T00:41:30.946Z,15.57
2022-09-04T00:44:25.462Z,16.13
2022-09-04T00:49:42.146Z,13.02
2022-09-04T00:52:46.315Z,13.23
2022-09-04T00:55:47.091Z,11.55
2022-09-04T00:58:25.972Z,14.57
2022-09-04T01:00:56.978Z,11.82
2022-09-04T01:03:44.589Z,10.45
2022-09-04T01:06:25.122Z,15.07
2022-09-04T01:09:11.852Z,16.48
2022-09-04T01:11:38.795Z,10.88
2022-09-04T01:14:13.117Z,12.82
2022-09-04T01:16:59.766Z,10.05
2022-09-04T01:20:09.829Z,10.75
2022-09-04T01:22:44.290Z,10.95
2022-09-04T01:25:38.862Z,10.05
2022-09-04T01:28:09.667Z,18.58
2022-09-04T01:30:49.903Z,13.13
2022-09-04T01:33:58.084Z,10.30
2022-09-04T01:36:48.167Z,10.05
2022-09-04T01:39:20.740Z,9.00
2022-09-04T01:41:52.755Z,11.65
2022-09-04T01:44:19.714Z,10.05
2022-09-04T01:47:10.737Z,13.52
2022-09-04T01:49:38.949Z,12.43
2022-09-04T01:52:21.802Z,11.48
2022-09-04T01:54:57.132Z,11.95
2022-09-04T01:58:18.456Z,10.18
2022-09-04T02:00:57.649Z,8.77
2022-09-04T02:03:31.789Z,8.68
2022-09-04T02:06:30.551Z,8.80
2022-09-04T02:09:27.621Z,8.07
2022-09-04T02:12:27.425Z,9.88
2022-09-04T02:15:04.286Z,10.90
2022-09-04T02:17:45.371Z,9.23
2022-09-04T02:20:18.758Z,6.95
2022-09-04T02:23:10.247Z,11.05
2022-09-04T02:26:13.229Z,8.13
2022-09-04T02:28:43.034Z,10.68
2022-09-04T02:31:39.010Z,7.38
2022-09-04T02:34:21.814Z,6.38
2022-09-04T02:36:54.529Z,8.70
2022-09-04T02:39:39.414Z,9.85
2022-09-04T02:42:23.937Z,9.57
2022-09-04T02:45:12.434Z,7.50
2022-09-04T02:48:01.391Z,8.10
2022-09-04T02:50:59.326Z,7.82
2022-09-04T02:54:02.359Z,7.63
2022-09-04T02:56:43.813Z,8.40
2022-09-04T02:59:42.943Z,7.28
2022-09-04T03:02:21.531Z,5.82
2022-09-04T03:05:03.950Z,8.40
2022-09-04T03:07:42.823Z,7.70
2022-09-04T03:10:18.327Z,6.93
2022-09-04T03:12:52.402Z,8.93
2022-09-04T03:15:43.647Z,9.80
2022-09-04T03:18:51.883Z,7.72
2022-09-04T03:21:47.251Z,8.88
2022-09-04T03:24:38.284Z,10.25
2022-09-04T03:27:10.566Z,9.48
2022-09-04T03:29:53.560Z,7.53
2022-09-04T03:32:35.599Z,9.63
2022-09-04T03:35:22.570Z,9.98
2022-09-04T03:37:59.856Z,9.30
2022-09-04T03:40:35.719Z,9.57
2022-09-04T03:43:31.087Z,11.88
2022-09-04T03:46:10.030Z,7.03
2022-09-04T03:48:46.848Z,10.70
2022-09-04T03:51:58.741Z,8.07
2022-09-04T03:54:44.323Z,11.57
2022-09-04T03:57:32.103Z,6.80
2022-09-04T04:00:12.526Z,11.07
2022-09-04T04:03:12.650Z,12.63
2022-09-04T04:06:17.687Z,6.80
2022-09-04T04:09:04.926Z,8.55
2022-09-04T04:12:03.722Z,7.72
2022-09-04T04:14:59.343Z,8.93
2022-09-04T04:18:06.703Z,14.38
2022-09-04T04:20:44.550Z,7.65
2022-09-04T04:23:29.916Z,8.90
2022-09-04T04:26:21.576Z,8.30
2022-09-04T04:29:26.820Z,9.27
2022-09-04T04:32:18.960Z,6.90
2022-09-04T04:35:04.982Z,10.68
2022-09-04T04:37:34.503Z,7.38
2022-09-04T04:40:18.139Z,7.13
2022-09-04T04:43:14.903Z,11.50
2022-09-04T04:46:06.152Z,8.48
2022-09-04T04:48:36.788Z,6.82
2022-09-04T04:51:40.946Z,6.25
2022-09-04T04:54:44.026Z,7.57
2022-09-04T04:57:32.637Z,14.13
2022-09-04T05:00:08.875Z,7.40
2022-09-04T05:03:03.120Z,8.50
2022-09-04T05:05:50.862Z,7.60
2022-09-04T05:08:29.419Z,8.70
2022-09-04T05:11:15.253Z,8.73
2022-09-04T05:14:05.289Z,8.20
2022-09-04T05:16:52.205Z,11.38
2022-09-04T05:19:30.358Z,10.52
2022-09-04T05:22:38.904Z,7.18
2022-09-04T05:25:25.699Z,9.48
2022-09-04T05:27:56.935Z,8.82
2022-09-04T05:30:39.272Z,6.70
2022-09-04T05:33:09.107Z,7.47
2022-09-04T05:35:52.968Z,7.18
2022-09-04T05:38:40.752Z,9.55
2022-09-04T05:41:20.647Z,8.45
2022-09-04T05:44:11.807Z,11.63
2022-09-04T05:47:07.249Z,9.23
2022-09-04T05:50:10.318Z,9.68
2022-09-04T05:52:55.390Z,12.82
2022-09-04T05:55:43.413Z,12.18
2022-09-04T05:58:17.694Z,8.15
2022-09-04T06:01:13.044Z,7.55
2022-09-04T06:04:07.347Z,7.07
2022-09-04T06:07:13.421Z,9.50
2022-09-04T06:10:12.239Z,10.18
2022-09-04T06:13:02.142Z,8.30
2022-09-04T06:15:50.144Z,6.53
2022-09-04T06:18:17.207Z,9.35
2022-09-04T06:21:00.410Z,11.27
2022-09-04T06:23:30.828Z,8.07
2022-09-04T06:25:57.826Z,8.98
2022-09-04T06:29:06.825Z,12.27
2022-09-04T06:32:11.686Z,11.73
2022-09-04T06:35:14.439Z,9.25
2022-09-04T06:37:44.274Z,15.50
2022-09-04T06:40:42.971Z,14.30
2022-09-04T06:43:29.482Z,13.48
2022-09-04T06:46:03.481Z,15.00
2022-09-04T06:48:54.181Z,14.30
2022-09-04T06:51:27.127Z,10.60
2022-09-04T06:54:14.439Z,10.93
2022-09-04T06:57:02.159Z,14.02
2022-09-04T06:59:52.475Z,15.48
2022-09-04T07:02:54.463Z,14.00
2022-09-04T07:05:42.994Z,13.32
2022-09-04T07:08:32.731Z,12.45
2022-09-04T07:11:17.955Z,13.52
2022-09-04T07:14:20.947Z,15.20
2022-09-04T07:17:15.292Z,14.13
2022-09-04T07:20:11.209Z,14.43
2022-09-04T07:23:00.125Z,16.65
2022-09-04T07:25:51.514Z,14.35
2022-09-04T07:28:55.810Z,16.17
2022-09-04T07:31:36.899Z,14.95
2022-09-04T07:34:31.437Z,16.55
2022-09-04T07:39:43.349Z,18.90
2022-09-04T07:42:53.707Z,20.30
2022-09-04T07:45:51.429Z,18.08
2022-09-04T07:48:24.594Z,17.70
2022-09-04T07:51:10.222Z,17.57
2022-09-04T07:53:58.719Z,14.20
2022-09-04T07:56:28.806Z,18.23
2022-09-04T07:59:32.185Z,18.98
2022-09-04T08:02:02.447Z,16.73
2022-09-04T08:05:11.349Z,15.55
2022-09-04T08:07:38.290Z,14.43
2022-09-04T08:10:23.647Z,13.23
2022-09-04T08:13:22.562Z,12.05
2022-09-04T08:16:10.542Z,14.32
2022-09-04T08:19:03.534Z,11.48
2022-09-04T08:21:52.452Z,10.93
2022-09-04T08:24:56.693Z,13.70
2022-09-04T08:28:22.320Z,12.50
2022-09-04T08:31:03.796Z,9.25
2022-09-04T08:33:44.847Z,11.40
2022-09-04T08:36:25.378Z,10.60
2022-09-04T08:39:06.884Z,9.30
2022-09-04T08:41:39.662Z,13.43
2022-09-04T08:44:09.607Z,7.82
2022-09-04T08:47:35.249Z,8.93
2022-09-04T08:50:35.533Z,9.15
2022-09-04T08:53:20.836Z,10.80
2022-09-04T08:56:00.972Z,10.23
2022-09-04T08:58:47.650Z,8.15
2022-09-04T09:01:35.458Z,7.75
2022-09-04T09:04:13.964Z,10.02
2022-09-04T09:07:08.251Z,8.65
2022-09-04T09:12:37.336Z,7.32
2022-09-04T09:15:17.473Z,8.27
2022-09-04T09:18:03.334Z,8.57
2022-09-04T09:20:30.415Z,10.80
2022-09-04T09:23:37.975Z,3.60
2022-09-04T09:26:26.740Z,9.27
2022-09-04T09:28:59.586Z,9.40
2022-09-04T09:32:04.275Z,5.87
2022-09-04T09:34:59.604Z,6.60
2022-09-04T09:38:04.833Z,8.10
2022-09-04T09:40:39.244Z,4.32
2022-09-04T09:43:30.142Z,7.20
2022-09-04T09:46:14.573Z,4.72
2022-09-04T09:49:15.157Z,7.60
2022-09-04T09:52:21.058Z,8.07
2022-09-04T09:55:17.348Z,7.78
2022-09-04T09:58:11.626Z,6.72
2022-09-04T10:01:22.200Z,5.70
2022-09-04T10:04:13.267Z,6.82
2022-09-04T10:07:21.235Z,6.60
2022-09-04T10:10:38.664Z,3.83
2022-09-04T10:13:11.138Z,5.68
2022-09-04T10:15:52.819Z,7.30
2022-09-04T10:18:53.155Z,6.45
2022-09-04T10:21:28.958Z,9.23
2022-09-04T10:24:13.843Z,5.90
2022-09-04T10:27:22.480Z,6.78
2022-09-04T10:30:16.586Z,5.43
2022-09-04T10:33:11.651Z,6.40
2022-09-04T10:35:58.411Z,6.05
2022-09-04T10:39:09.321Z,5.65
2022-09-04T10:41:53.183Z,5.47
2022-09-04T10:47:19.938Z,5.20
2022-09-04T10:50:00.323Z,8.95
2022-09-04T10:52:30.478Z,5.90
2022-09-04T10:55:02.522Z,8.15
2022-09-04T10:57:52.288Z,6.03
2022-09-04T11:00:28.875Z,5.20
2022-09-04T11:03:13.049Z,6.60
2022-09-04T11:05:53.766Z,5.50
2022-09-04T11:08:39.224Z,5.88
2022-09-04T11:11:24.730Z,5.55
2022-09-04T11:14:06.952Z,5.75
2022-09-04T11:16:39.464Z,7.68
2022-09-04T11:19:25.281Z,9.10
2022-09-04T11:22:34.536Z,7.43
2022-09-04T11:25:38.989Z,9.55
2022-09-04T11:28:47.403Z,4.00
2022-09-04T11:31:41.308Z,6.60
2022-09-04T11:34:40.605Z,8.70
2022-09-04T11:37:21.177Z,6.32
2022-09-04T11:39:54.042Z,6.68
2022-09-04T11:42:41.288Z,8.73
2022-09-04T11:45:35.554Z,5.85
2022-09-04T11:48:37.691Z,3.90
2022-09-04T11:51:42.919Z,11.35
2022-09-04T11:54:41.844Z,5.68
2022-09-04T11:57:20.676Z,5.57
2022-09-04T12:00:15.643Z,4.45
2022-09-04T12:03:26.372Z,4.55
2022-09-04T12:06:07.120Z,5.82
2022-09-04T12:09:01.437Z,4.70
2022-09-04T12:11:50.810Z,4.97
2022-09-04T12:14:26.614Z,3.95
2022-09-04T12:17:15.461Z,3.72
2022-09-04T12:20:07.870Z,3.95
2022-09-04T12:22:44.006Z,4.28
2022-09-04T12:25:10.942Z,5.10
2022-09-04T12:27:59.157Z,9.48
2022-09-04T12:30:50.511Z,4.70
2022-09-04T12:33:42.736Z,9.07
2022-09-04T12:36:21.146Z,6.20
2022-09-04T12:39:25.057Z,6.47
2022-09-04T12:42:22.277Z,4.13
2022-09-04T12:45:26.117Z,4.05
2022-09-04T12:48:22.196Z,6.15
2022-09-04T12:51:05.470Z,5.90
2022-09-04T12:53:52.923Z,4.55
2022-09-04T12:56:26.343Z,5.80
2022-09-04T12:59:18.929Z,6.35
2022-09-04T13:02:05.795Z,3.70
2022-09-04T13:04:55.818Z,5.80
2022-09-04T13:07:44.678Z,7.35
2022-09-04T13:10:35.666Z,3.65
2022-09-04T13:13:15.774Z,3.47
2022-09-04T13:15:55.320Z,8.98
2022-09-04T13:18:50.571Z,8.52
2022-09-04T13:21:46.534Z,5.03
2022-09-04T13:24:51.187Z,7.07
2022-09-04T13:27:45.093Z,4.10
2022-09-04T13:30:25.479Z,4.50
2022-09-04T13:33:08.676Z,5.35
2022-09-04T13:35:55.352Z,6.28
2022-09-04T13:38:44.227Z,4.05
2022-09-04T13:41:50.636Z,3.65
2022-09-04T13:44:31.007Z,5.13
2022-09-04T13:47:12.197Z,5.22
2022-09-04T13:49:48.157Z,8.20
2022-09-04T13:52:37.959Z,4.95
2022-09-04T13:55:13.096Z,5.45
2022-09-04T13:57:57.519Z,5.38
2022-09-04T14:00:27.748Z,6.93
2022-09-04T14:03:09.021Z,4.45
2022-09-04T14:05:37.961Z,6.80
2022-09-04T14:08:13.520Z,4.82
2022-09-04T14:10:56.031Z,3.67
2022-09-04T14:13:25.754Z,7.22
2022-09-04T14:16:04.488Z,7.53
2022-09-04T14:18:59.206Z,4.07
2022-09-04T14:21:44.518Z,5.47
2022-09-04T14:24:38.952Z,7.50
2022-09-04T14:27:24.718Z,5.25
2022-09-04T14:30:19.601Z,5.82
2022-09-04T14:33:05.028Z,5.22
2022-09-04T14:36:04.719Z,7.10
2022-09-04T14:38:56.758Z,4.50
2022-09-04T14:42:01.723Z,7.25
2022-09-04T14:44:35.767Z,4.07
2022-09-04T14:47:20.627Z,3.88
2022-09-04T14:49:50.953Z,5.35
2022-09-04T14:52:27.762Z,6.13
2022-09-04T14:54:58.076Z,3.78
2022-09-04T14:57:40.107Z,4.15
2022-09-04T15:00:26.203Z,6.53
2022-09-04T15:02:59.761Z,4.43
2022-09-04T15:05:55.894Z,5.65
2022-09-04T15:08:40.567Z,3.35
2022-09-04T15:11:45.438Z,4.18
2022-09-04T15:14:34.383Z,5.22
2022-09-04T15:17:08.643Z,4.75
2022-09-04T15:19:53.058Z,9.60
2022-09-04T15:22:42.772Z,3.83
2022-09-04T15:25:58.786Z,4.03
2022-09-04T15:28:49.802Z,4.72
2022-09-04T15:31:18.447Z,5.35
2022-09-04T15:33:47.948Z,4.78
2022-09-04T15:36:24.632Z,5.10
2022-09-04T15:38:56.334Z,5.95
2022-09-04T15:41:32.489Z,4.68
2022-09-04T15:44:26.646Z,2.60
2022-09-04T15:47:18.197Z,3.28
2022-09-04T15:50:19.131Z,6.70
2022-09-04T15:53:12.916Z,6.15
2022-09-04T15:58:25.324Z,7.68
2022-09-04T16:01:08.195Z,5.03
2022-09-04T16:04:01.256Z,7.20
2022-09-04T16:06:35.770Z,8.43
2022-09-04T16:09:21.299Z,4.55
2022-09-04T16:12:00.436Z,5.28
2022-09-04T16:14:35.612Z,4.03
2022-09-04T16:17:14.614Z,4.35
2022-09-04T16:20:00.601Z,4.13
2022-09-04T16:22:46.468Z,3.58
2022-09-04T16:25:22.516Z,6.30
2022-09-04T16:28:21.902Z,4.57
2022-09-04T16:31:04.793Z,2.85
2022-09-04T16:33:39.550Z,3.40
2022-09-04T16:36:08.510Z,5.25
2022-09-04T16:38:47.576Z,4.70
2022-09-04T16:41:14.674Z,4.60
2022-09-04T16:44:23.896Z,4.32
2022-09-04T16:47:17.931Z,3.53
2022-09-04T16:49:57.676Z,4.53
2022-09-04T16:52:44.408Z,3.72
2022-09-04T16:55:24.760Z,5.28
2022-09-04T16:58:07.396Z,5.18
2022-09-04T17:01:20.861Z,3.33
2022-09-04T17:04:12.560Z,3.80
2022-09-04T17:07:02.609Z,6.77
2022-09-04T17:09:48.068Z,4.53
2022-09-04T17:12:26.945Z,3.58
2022-09-04T17:15:26.715Z,4.07
2022-09-04T17:17:54.485Z,5.85
2022-09-04T17:23:17.928Z,5.70
2022-09-04T17:28:59.892Z,5.07
2022-09-04T17:29:18.364Z,4.30
2022-09-04T17:29:49.291Z,7.25
2022-09-04T17:35:23.726Z,3.83
2022-09-04T17:40:44.405Z,5.65
2022-09-04T17:40:54.116Z,5.88
2022-09-04T17:42:08.733Z,6.70
2022-09-04T17:44:50.532Z,4.38
2022-09-04T17:47:37.997Z,4.28
2022-09-04T17:50:19.198Z,7.38
2022-09-04T17:53:08.214Z,6.45
2022-09-04T18:08:09.463Z,5.93
2022-09-04T18:10:49.575Z,5.85
2022-09-04T18:13:37.976Z,8.77
2022-09-04T18:16:47.548Z,5.68
2022-09-04T18:19:48.144Z,4.78
2022-09-04T18:23:13.385Z,2.97
2022-09-04T18:26:03.848Z,5.15
2022-09-04T18:28:50.730Z,4.88
2022-09-04T18:37:10.646Z,6.00
2022-09-04T18:37:24.176Z,8.15
2022-09-04T18:37:52.814Z,8.35
2022-09-04T18:40:43.035Z,4.15
2022-09-04T18:50:26.066Z,12.32
2022-09-04T18:50:32.729Z,7.78
2022-09-04T18:50:46.883Z,4.53
2022-09-04T18:51:58.134Z,5.15
2022-09-04T18:54:42.599Z,6.43
2022-09-04T18:57:24.527Z,3.70
2022-09-04T19:00:09.007Z,5.50
2022-09-04T19:03:01.011Z,4.72
2022-09-04T19:05:44.663Z,7.10
2022-09-04T19:08:34.979Z,5.82
2022-09-04T19:11:20.422Z,6.15
2022-09-04T19:14:09.881Z,5.18
2022-09-04T19:16:51.947Z,6.53
2022-09-04T19:19:31.829Z,6.03
2022-09-04T19:22:04.890Z,5.30
2022-09-04T19:24:48.786Z,2.95
2022-09-04T19:30:18.906Z,5.13
2022-09-04T19:33:02.872Z,11.95
2022-09-04T19:35:38.320Z,6.20
2022-09-04T19:42:33.951Z,6.47
2022-09-04T19:46:03.889Z,5.18
2022-09-04T19:46:11.956Z,7.40
2022-09-04T19:47:29.288Z,5.07
2022-09-04T19:53:24.220Z,5.45
2022-09-04T19:56:31.561Z,8.07
2022-09-04T19:59:17.714Z,6.68
2022-09-04T20:01:52.171Z,4.57
2022-09-04T20:04:41.810Z,6.90
2022-09-04T20:07:41.086Z,9.20
2022-09-04T20:10:37.287Z,7.05
2022-09-04T20:13:19.020Z,6.80
2022-09-04T20:16:13.029Z,4.75
2022-09-04T20:18:55.887Z,6.22
2022-09-04T20:21:45.484Z,9.10
2022-09-04T20:24:22.611Z,6.75
2022-09-04T20:27:15.936Z,5.28
2022-09-04T20:29:55.989Z,6.73
2022-09-04T20:32:32.059Z,7.68
2022-09-04T20:35:22.315Z,4.15
2022-09-04T20:38:23.564Z,8.00
2022-09-04T20:40:57.965Z,5.85
2022-09-04T20:43:46.795Z,4.95
2022-09-04T20:52:41.028Z,7.05
2022-09-04T20:52:56.241Z,7.43
2022-09-04T20:53:04.785Z,7.90
2022-09-04T20:55:38.595Z,7.43
2022-09-04T21:03:05.647Z,4.22
2022-09-04T21:03:23.113Z,4.97
2022-09-04T21:04:43.050Z,7.10
2022-09-04T21:07:44.114Z,6.22
2022-09-04T21:10:32.167Z,7.40
2022-09-04T21:13:21.774Z,7.13
2022-09-04T21:16:13.162Z,4.60
2022-09-04T21:19:28.985Z,4.00
2022-09-04T21:22:33.144Z,6.70
2022-09-04T21:25:06.307Z,5.63
2022-09-04T21:27:39.078Z,9.02
2022-09-04T21:30:13.736Z,4.60
2022-09-04T21:32:53.203Z,4.25
2022-09-04T21:35:35.875Z,5.40
2022-09-04T21:38:36.211Z,4.15
2022-09-04T21:41:21.716Z,6.05
2022-09-04T21:44:07.066Z,5.78
2022-09-04T21:46:37.002Z,4.95
2022-09-04T21:49:27.068Z,3.75
2022-09-04T21:52:25.099Z,4.50
2022-09-04T21:58:11.551Z,7.63
2022-09-04T22:02:29.002Z,5.28
2022-09-04T22:02:42.249Z,5.05
2022-09-04T22:04:07.417Z,3.50
2022-09-04T22:08:01.108Z,4.05
2022-09-04T22:13:32.370Z,4.43
2022-09-04T22:13:41.293Z,6.68
2022-09-04T22:15:57.348Z,6.53
2022-09-04T22:18:45.403Z,4.95
2022-09-04T22:21:43.239Z,7.32
2022-09-04T22:24:32.468Z,4.82
2022-09-04T22:30:24.492Z,6.80
2022-09-04T22:33:52.596Z,3.72
2022-09-04T22:36:54.225Z,8.45
2022-09-04T22:39:53.823Z,6.47
2022-09-04T22:42:39.359Z,6.13
2022-09-04T22:45:23.483Z,9.32
2022-09-04T22:48:12.269Z,4.53
2022-09-04T22:50:51.135Z,4.75
2022-09-04T22:53:27.252Z,4.72
2022-09-04T22:56:23.054Z,5.57
2022-09-04T22:58:51.848Z,5.75
2022-09-04T23:01:47.749Z,2.72
2022-09-04T23:04:51.191Z,7.47
2022-09-04T23:13:46.858Z,4.25
2022-09-04T23:14:02.932Z,5.57
2022-09-04T23:16:30.406Z,6.57
2022-09-04T23:26:01.606Z,4.13
2022-09-04T23:26:39.094Z,3.60
2022-09-04T23:26:58.780Z,5.55
2022-09-04T23:28:27.766Z,6.82
2022-09-04T23:31:07.262Z,4.28
2022-09-04T23:33:55.856Z,6.22
2022-09-04T23:36:48.775Z,4.57
2022-09-04T23:39:22.207Z,5.25
2022-09-04T23:41:55.282Z,6.07
2022-09-04T23:45:09.331Z,3.92
2022-09-04T23:47:47.948Z,3.55
2022-09-04T23:50:24.253Z,5.03
2022-09-04T23:53:20.716Z,4.55
2022-09-04T23:55:56.134Z,7.20
2022-09-04T23:59:23.515Z,3.45
